hwlogo.jpg (8581 bytes)
Home Your Weather Products Services Weather On Your Site Contact
HW Version Logo
Weather Info
Your Weather (Options)
Canadian Weather
International Weather
Enter your " Place, State", US Zip Code or ICAO:  
Forecast Information Radar Information
High Level, Alberta, Canada  Lat: 58.60N, Lon: 117.15W
ICAO Used: CYOJ
Current Conditions
Updated: 10:00 PM MST SUN FEB 18 2018
Sun & Moon Information
Overcast
Overcast
Temp: -10°C
Humidity: 61%
Wind Speed: CALM
Barometer: 1014 mb
Dewpoint: -16°C
Heat Index: -10°C
Wind Chill: -10°C
Civil Twilight: 7:33 AM MST Moon Phase:
Waxing Crescent Moon
Sunrise: 8:15 AM MST
Sunset: 5:49 PM MST
Civil Twilight: 6:31 PM MST
Forecast for High Level, AB:
(Forecast based on TAF for )
0642 PM MST SUN FEB 18 2018
  
OVERNIGHT MORNING
Mostly
Cloudy
Overcast
ZoneCast:
Dated: 0642 PM MST SUN FEB 18 2018
Overnight...Mostly cloudy with winds from the northwest at 9 mph. Turning overcast with winds from the northwest at 9 mph.

Morning...Overcast with winds from the northwest at 9 mph.

Original Encoded TAF:
Dated: 0642 PM MST SUN FEB 18 2018
2018/02/19 01:42
TAF CYOJ 190038Z 1901/1913 32008KT P6SM SCT020 BKN040 BKN120 
      TEMPO 1901/1908 4SM -SN BKN020 OVC040 
     FM190800 32008KT P6SM OVC020 
      TEMPO 1908/1913 2SM -SN OVC008 
      RMK NXT FCST BY 190700Z